Time;durP1;ratioP1;P1;durP2;ratioP2;P2;SDS_P1;SDS_P2;PMS_P1;PMS_P2;Temp;Humidity;BMP_temperature;BMP_pressure;BME280_temperature;BME280_humidity;BME280_pressure;Samples;Min_cycle;Max_cycle;Signal;HPM_P1;HPM_P2
2021/08/13 00:02:07;;;;;;;4.80;3.45;;;;;;;17.15;66.21;99998.11;1647515;84;21055;-73
2021/08/13 00:04:34;;;;;;;4.70;2.87;;;;;;;17.14;66.50;99997.86;1650928;83;21052;-74
2021/08/13 00:07:04;;;;;;;6.25;3.37;;;;;;;17.12;66.55;100000.21;1685020;85;21647;-72
2021/08/13 00:09:33;;;;;;;4.92;3.12;;;;;;;17.10;66.82;100002.53;1685067;85;21131;-73
2021/08/13 00:12:03;;;;;;;7.35;3.58;;;;;;;17.09;66.41;99997.29;1685355;85;21142;-73
2021/08/13 00:14:31;;;;;;;5.72;3.58;;;;;;;17.08;66.24;100002.61;1685599;85;21071;-74
2021/08/13 00:16:57;;;;;;;6.37;3.80;;;;;;;17.07;66.07;100001.82;1685144;85;21504;-74
2021/08/13 00:19:26;;;;;;;12.07;5.17;;;;;;;17.07;65.96;100003.78;1687134;84;21043;-72
2021/08/13 00:21:56;;;;;;;11.12;5.17;;;;;;;17.06;66.00;99996.61;1703716;83;21682;-74
2021/08/13 00:24:24;;;;;;;9.80;5.28;;;;;;;17.03;65.99;99998.93;1677829;84;21042;-73
2021/08/13 00:26:54;;;;;;;12.68;6.40;;;;;;;17.00;65.86;99996.03;1705841;83;21139;-75
2021/08/13 00:29:31;;;;;;;11.43;6.20;;;;;;;16.98;65.90;99999.17;1695615;83;20991;-72
2021/08/13 00:32:01;;;;;;;11.68;7.47;;;;;;;16.92;66.27;99997.81;1623512;85;21007;-71
2021/08/13 00:34:27;;;;;;;12.75;9.23;;;;;;;16.83;66.64;100001.30;1684111;84;21038;-73
2021/08/13 00:36:54;;;;;;;16.30;11.25;;;;;;;16.82;66.80;100001.08;1673716;85;21085;-72
2021/08/13 00:39:23;;;;;;;16.42;9.98;;;;;;;16.82;66.73;100002.47;1677586;84;21503;-72
2021/08/13 00:41:49;;;;;;;21.82;9.10;;;;;;;16.82;66.66;100003.26;1682304;84;21114;-72
2021/08/13 00:44:18;;;;;;;16.45;8.65;;;;;;;16.83;66.50;100009.64;1676249;84;21024;-72
2021/08/13 00:46:46;;;;;;;10.48;7.50;;;;;;;16.83;66.34;100004.90;1683306;83;21046;-71
2021/08/13 00:49:26;;;;;;;13.98;7.12;;;;;;;16.83;66.17;100009.07;1652273;84;21015;-72
2021/08/13 00:54:55;;;;;;;9.33;5.10;;;;;;;16.75;66.45;100015.58;1667128;86;21003;-73
2021/08/13 00:57:28;;;;;;;11.00;4.72;;;;;;;16.74;66.31;100022.29;1672053;84;21078;-74
2021/08/13 01:00:00;;;;;;;7.80;4.00;;;;;;;16.71;66.32;100014.65;1622456;85;21106;-71
2021/08/13 01:02:38;;;;;;;10.08;4.55;;;;;;;16.70;66.35;100026.34;1681273;84;21075;-72
2021/08/13 01:05:08;;;;;;;7.42;4.33;;;;;;;16.67;66.29;100015.35;1681748;84;20987;-73
2021/08/13 01:07:36;;;;;;;8.43;4.62;;;;;;;16.64;66.38;100024.97;1684927;84;21525;-72
2021/08/13 01:10:04;;;;;;;11.60;5.12;;;;;;;16.61;66.35;100021.50;1682489;84;20975;-71
2021/08/13 01:12:57;;;;;;;9.73;3.85;;;;;;;16.59;66.40;100030.77;1659222;84;20998;-72
2021/08/13 01:15:27;;;;;;;5.67;4.33;;;;;;;16.56;66.59;100025.34;1672786;85;21583;-70
2021/08/13 01:18:14;;;;;;;7.95;4.47;;;;;;;16.55;66.54;100026.48;1694177;84;21610;-70
2021/08/13 01:21:13;;;;;;;6.62;3.80;;;;;;;16.52;66.59;100029.97;1691563;84;21054;-71
2021/08/13 01:24:16;;;;;;;7.08;3.77;;;;;;;16.49;66.69;100028.70;1696543;83;21055;-73
2021/08/13 01:27:03;;;;;;;6.75;3.87;;;;;;;16.46;66.70;100026.63;1674673;84;21114;-73
2021/08/13 01:29:57;;;;;;;8.73;3.98;;;;;;;16.43;66.78;100041.20;1651134;84;20984;-71
2021/08/13 01:32:41;;;;;;;14.30;4.33;;;;;;;16.40;66.94;100034.38;1675322;85;21134;-71
2021/08/13 01:35:13;;;;;;;10.18;5.42;;;;;;;16.39;66.92;100033.34;1628549;86;21935;-70
2021/08/13 01:37:43;;;;;;;10.55;3.98;;;;;;;16.38;66.85;100038.65;1641469;86;21007;-72
2021/08/13 01:40:15;;;;;;;8.40;4.28;;;;;;;16.33;66.82;100032.75;1656351;86;21040;-71
2021/08/13 01:42:45;;;;;;;8.88;4.80;;;;;;;16.30;66.90;100035.66;1670397;85;21063;-71
2021/08/13 01:45:24;;;;;;;9.53;4.10;;;;;;;16.28;66.99;100037.14;1642910;86;21021;-70
2021/08/13 01:47:51;;;;;;;9.65;4.00;;;;;;;16.25;67.04;100041.45;1672745;85;21071;-71
2021/08/13 01:50:21;;;;;;;8.38;4.47;;;;;;;16.21;67.02;100049.41;1623802;87;21099;-73
2021/08/13 01:53:01;;;;;;;8.28;4.05;;;;;;;16.17;67.09;100046.53;1643557;86;21016;-72
2021/08/13 01:55:31;;;;;;;9.38;4.37;;;;;;;16.13;67.16;100058.09;1643791;85;21056;-71
2021/08/13 01:58:00;;;;;;;8.43;4.72;;;;;;;16.08;67.43;100060.53;1660231;86;21031;-71
2021/08/13 02:00:30;;;;;;;9.88;4.45;;;;;;;16.08;67.65;100064.70;1651513;86;21039;-72
2021/08/13 02:02:57;;;;;;;10.20;4.55;;;;;;;16.09;67.74;100066.30;1660152;85;21541;-73
2021/08/13 02:05:30;;;;;;;11.48;4.42;;;;;;;16.10;67.70;100065.73;1630876;86;21075;-73
2021/08/13 02:08:03;;;;;;;9.10;4.22;;;;;;;16.07;67.58;100067.22;1660953;86;21622;-73
2021/08/13 02:10:31;;;;;;;10.90;4.75;;;;;;;16.03;67.50;100071.30;1620254;86;21270;-72
2021/08/13 02:12:59;;;;;;;5.00;4.08;;;;;;;15.98;67.50;100075.66;1646138;86;21076;-72
2021/08/13 02:15:27;;;;;;;12.03;4.70;;;;;;;15.93;67.68;100082.22;1644153;85;21104;-72
2021/08/13 02:18:07;;;;;;;11.50;4.42;;;;;;;15.89;67.98;100086.85;1656115;85;21114;-72
2021/08/13 02:20:41;;;;;;;9.60;4.92;;;;;;;15.88;68.02;100091.36;1674750;85;21044;-71
2021/08/13 02:23:10;;;;;;;7.22;4.80;;;;;;;15.86;68.13;100090.32;1623972;87;21587;-71
2021/08/13 02:25:41;;;;;;;11.80;4.92;;;;;;;15.86;68.30;100093.10;1655799;86;20995;-71
2021/08/13 02:28:17;;;;;;;9.30;4.30;;;;;;;15.86;68.40;100090.32;1616772;88;21053;-71
2021/08/13 02:30:45;;;;;;;16.25;4.97;;;;;;;15.86;68.32;100093.66;1634549;85;21011;-71
2021/08/13 02:33:13;;;;;;;6.08;4.05;;;;;;;15.83;68.20;100097.95;1624177;87;21016;-72
2021/08/13 02:35:42;;;;;;;9.88;4.45;;;;;;;15.79;68.25;100095.05;1637734;85;21123;-72
2021/08/13 02:38:16;;;;;;;8.78;4.50;;;;;;;15.76;68.41;100098.48;1650097;86;21240;-73
2021/08/13 02:41:01;;;;;;;9.63;5.10;;;;;;;15.74;68.48;100104.16;1652919;85;21521;-71
2021/08/13 02:43:53;;;;;;;12.65;4.80;;;;;;;15.71;68.55;100104.27;1657702;85;21037;-74
2021/08/13 02:46:21;;;;;;;8.30;4.70;;;;;;;15.68;68.58;100095.21;1658929;85;21099;-71
2021/08/13 02:48:49;;;;;;;6.90;4.58;;;;;;;15.64;68.69;100093.72;1655517;85;21079;-71
2021/08/13 02:51:16;;;;;;;12.50;4.67;;;;;;;15.62;68.76;100097.97;1656078;86;21206;-72
2021/08/13 02:53:47;;;;;;;14.10;4.75;;;;;;;15.56;68.87;100096.80;1660892;86;21047;-73
2021/08/13 02:56:17;;;;;;;12.88;4.35;;;;;;;15.54;69.05;100094.92;1656271;86;21071;-72
2021/08/13 02:58:53;;;;;;;8.98;4.75;;;;;;;15.52;69.14;100095.86;1656394;85;21084;-72
2021/08/13 03:01:27;;;;;;;14.58;4.97;;;;;;;15.52;69.28;100106.15;1676269;85;21534;-73
2021/08/13 03:03:55;;;;;;;9.05;4.35;;;;;;;15.52;69.42;100106.97;1643135;86;21595;-73
2021/08/13 03:06:28;;;;;;;12.28;5.08;;;;;;;15.52;69.39;100107.53;1659886;85;21582;-73
2021/08/13 03:08:54;;;;;;;9.85;5.00;;;;;;;15.50;69.50;100109.27;1654680;86;21076;-71
2021/08/13 03:11:21;;;;;;;14.40;5.37;;;;;;;15.49;69.63;100107.63;1656166;86;21067;-73
2021/08/13 03:13:49;;;;;;;13.00;5.00;;;;;;;15.52;69.78;100104.20;1587640;86;21559;-72
2021/08/13 03:16:17;;;;;;;11.65;4.12;;;;;;;15.52;69.82;100111.14;1662446;85;21050;-73
2021/08/13 03:18:45;;;;;;;8.68;4.33;;;;;;;15.52;69.98;100111.14;1628627;85;21047;-73
2021/08/13 03:21:14;;;;;;;5.72;4.22;;;;;;;15.53;70.06;100115.53;1661509;86;20996;-75
2021/08/13 03:23:42;;;;;;;9.08;4.53;;;;;;;15.51;70.26;100118.39;1643481;86;21062;-73
2021/08/13 03:26:13;;;;;;;5.87;4.25;;;;;;;15.51;70.42;100122.55;1652990;85;21055;-73
2021/08/13 03:28:42;;;;;;;12.45;4.78;;;;;;;15.52;70.53;100115.87;1642957;86;21843;-72
2021/08/13 03:31:38;;;;;;;9.48;5.35;;;;;;;15.55;70.54;100120.17;1690933;83;21032;-71
2021/08/13 03:34:15;;;;;;;7.78;4.58;;;;;;;15.56;70.64;100121.78;1704035;83;21124;-72
2021/08/13 03:36:43;;;;;;;8.80;4.47;;;;;;;15.60;70.68;100123.88;1676478;84;21038;-71
2021/08/13 03:39:13;;;;;;;10.10;4.42;;;;;;;15.63;70.64;100122.63;1700521;83;21093;-72
2021/08/13 03:41:42;;;;;;;7.22;4.10;;;;;;;15.66;70.66;100126.70;1677564;84;21134;-72
2021/08/13 03:44:10;;;;;;;12.00;5.12;;;;;;;15.70;70.70;100137.36;1699955;83;21061;-72
2021/08/13 03:46:38;;;;;;;8.63;5.20;;;;;;;15.75;70.73;100132.98;1677703;84;21090;-72
2021/08/13 03:49:07;;;;;;;10.15;5.00;;;;;;;15.81;70.71;100133.59;1677219;83;21594;-72
2021/08/13 03:51:36;;;;;;;8.53;4.53;;;;;;;15.85;70.71;100140.08;1706683;83;21031;-72
2021/08/13 03:54:07;;;;;;;9.15;4.85;;;;;;;15.88;70.72;100135.22;1690189;84;21482;-71
2021/08/13 03:56:50;;;;;;;8.68;4.40;;;;;;;15.93;70.87;100138.39;1687357;83;21686;-71
2021/08/13 03:59:23;;;;;;;9.60;4.33;;;;;;;15.99;70.93;100139.00;1660076;85;22091;-71
2021/08/13 04:01:51;;;;;;;10.32;5.15;;;;;;;16.04;71.00;100145.16;1691065;84;21090;-72
2021/08/13 04:04:22;;;;;;;8.33;4.72;;;;;;;16.10;71.06;100149.94;1704748;83;21556;-72
2021/08/13 04:06:51;;;;;;;9.88;4.55;;;;;;;16.16;71.10;100143.57;1706761;83;21575;-71
2021/08/13 04:09:19;;;;;;;11.93;4.72;;;;;;;16.23;71.14;100148.56;1704934;83;21010;-72
2021/08/13 04:11:48;;;;;;;12.50;5.10;;;;;;;16.28;71.18;100145.57;1675627;84;21081;-71
2021/08/13 04:14:17;;;;;;;9.03;4.90;;;;;;;16.35;71.11;100146.40;1691359;84;21495;-72
2021/08/13 04:16:45;;;;;;;8.78;4.97;;;;;;;16.45;70.87;100146.52;1703702;83;21043;-71
2021/08/13 04:19:14;;;;;;;8.30;4.53;;;;;;;16.52;70.88;100147.59;1703052;83;21048;-72
2021/08/13 04:21:40;;;;;;;8.53;4.97;;;;;;;16.58;70.90;100148.77;1656292;85;21040;-74
2021/08/13 04:24:08;;;;;;;6.97;4.60;;;;;;;16.63;70.83;100147.94;1685824;83;21075;-72
2021/08/13 04:26:36;;;;;;;10.65;5.20;;;;;;;16.68;70.77;100152.48;1685631;85;21586;-73
2021/08/13 04:29:08;;;;;;;10.95;4.92;;;;;;;16.73;70.73;100148.66;1685262;85;21106;-72
2021/08/13 04:31:37;;;;;;;8.58;4.40;;;;;;;16.75;70.65;100152.70;1655136;84;21143;-72
2021/08/13 04:34:05;;;;;;;8.43;4.25;;;;;;;16.78;70.70;100154.81;1681301;85;21051;-72
2021/08/13 04:36:36;;;;;;;6.85;3.98;;;;;;;16.82;70.55;100162.46;1694331;83;21095;-71
2021/08/13 04:39:04;;;;;;;7.35;4.58;;;;;;;16.85;70.60;100156.20;1675808;83;21038;-69
2021/08/13 04:41:33;;;;;;;15.23;4.47;;;;;;;16.89;70.40;100152.94;1664664;85;21124;-71
2021/08/13 04:44:07;;;;;;;7.45;4.35;;;;;;;16.94;70.31;100158.27;1689109;83;21068;-72
2021/08/13 04:46:34;;;;;;;7.78;4.40;;;;;;;16.96;69.64;100159.31;1673021;84;21294;-71
2021/08/13 04:49:01;;;;;;;7.15;4.00;;;;;;;16.96;69.69;100159.31;1678044;83;21028;-71
2021/08/13 04:51:29;;;;;;;10.95;4.40;;;;;;;16.99;69.53;100166.39;1630644;85;21039;-71
2021/08/13 04:54:02;;;;;;;8.78;4.30;;;;;;;17.03;69.36;100171.50;1673559;84;21060;-71
2021/08/13 04:56:29;;;;;;;11.97;4.15;;;;;;;17.02;68.92;100174.06;1659743;85;21752;-72
2021/08/13 04:58:59;;;;;;;6.00;3.98;;;;;;;17.07;69.16;100166.05;1677221;85;21046;-71
2021/08/13 05:01:27;;;;;;;9.38;4.22;;;;;;;17.15;69.14;100173.50;1682109;85;21059;-70
2021/08/13 05:03:56;;;;;;;8.70;4.25;;;;;;;17.22;68.83;100168.73;1696575;83;21074;-71
2021/08/13 05:06:27;;;;;;;8.93;4.08;;;;;;;17.21;68.91;100164.34;1667506;84;21027;-71
2021/08/13 05:08:56;;;;;;;14.80;4.47;;;;;;;17.27;69.14;100165.71;1679870;84;21881;-71
2021/08/13 05:11:22;;;;;;;5.97;4.00;;;;;;;17.34;68.73;100167.91;1696511;83;21026;-71
2021/08/13 05:13:50;;;;;;;8.95;4.37;;;;;;;17.31;68.64;100165.83;1665563;85;21095;-71
2021/08/13 05:16:19;;;;;;;5.92;4.10;;;;;;;17.34;68.48;100165.13;1669163;83;21079;-72
2021/08/13 05:18:45;;;;;;;8.03;4.37;;;;;;;17.40;68.72;100173.45;1693328;83;21067;-70
2021/08/13 05:21:23;;;;;;;12.07;4.12;;;;;;;17.55;68.74;100177.27;1622564;86;21069;-70
2021/08/13 05:23:52;;;;;;;6.78;4.37;;;;;;;17.69;68.61;100176.28;1596348;87;21110;-69
2021/08/13 05:26:19;;;;;;;10.60;4.90;;;;;;;17.83;68.36;100175.08;1594772;87;21066;-71
2021/08/13 05:28:48;;;;;;;9.45;4.33;;;;;;;17.91;67.85;100178.33;1643227;86;21130;-71
2021/08/13 05:31:35;;;;;;;7.87;4.30;;;;;;;17.97;67.67;100174.11;1620602;86;21093;-72
2021/08/13 05:34:03;;;;;;;13.08;4.78;;;;;;;18.06;67.87;100174.53;1620614;88;21623;-70
2021/08/13 05:36:30;;;;;;;12.90;3.67;;;;;;;18.16;67.58;100174.05;1622605;88;21551;-71
2021/08/13 05:38:58;;;;;;;11.88;4.45;;;;;;;18.26;67.41;100178.30;1622607;87;21373;-70
2021/08/13 05:41:24;;;;;;;6.58;4.83;;;;;;;18.34;67.01;100179.28;1601242;88;21043;-73
2021/08/13 05:43:53;;;;;;;9.85;4.35;;;;;;;18.40;67.08;100186.81;1622575;88;21050;-69
2021/08/13 05:46:20;;;;;;;11.33;4.30;;;;;;;18.48;67.35;100183.05;1587548;88;21125;-70
2021/08/13 05:48:48;;;;;;;9.58;4.12;;;;;;;18.56;67.16;100186.25;1618661;86;21529;-71
2021/08/13 05:51:16;;;;;;;7.12;4.20;;;;;;;18.63;66.86;100198.17;1627008;86;21032;-72
2021/08/13 05:53:44;;;;;;;7.53;3.92;;;;;;;18.71;66.70;100197.19;1621191;88;21068;-72
2021/08/13 05:56:11;;;;;;;7.55;4.12;;;;;;;18.79;66.48;100198.20;1621601;88;21059;-71
2021/08/13 05:58:43;;;;;;;6.10;3.70;;;;;;;18.85;65.99;100202.33;1621835;88;21148;-72
2021/08/13 06:01:15;;;;;;;7.35;4.15;;;;;;;18.91;66.18;100203.45;1620464;88;21066;-74
2021/08/13 06:03:43;;;;;;;15.95;4.50;;;;;;;18.95;66.49;100202.97;1610033;86;21031;-71
2021/08/13 06:06:09;;;;;;;7.08;3.85;;;;;;;19.01;66.28;100201.52;1652829;85;21074;-70
2021/08/13 06:08:49;;;;;;;8.08;3.85;;;;;;;19.10;65.97;100206.92;1675849;83;21020;-70
2021/08/13 06:11:21;;;;;;;9.03;4.12;;;;;;;19.17;65.67;100205.73;1684636;83;21019;-73
2021/08/13 06:13:51;;;;;;;5.40;3.60;;;;;;;19.24;65.51;100202.87;1651342;85;21068;-72
2021/08/13 06:16:22;;;;;;;10.67;4.53;;;;;;;19.31;65.73;100209.42;1685319;83;21020;-71
2021/08/13 06:18:48;;;;;;;5.70;4.10;;;;;;;19.40;65.48;100212.03;1624497;87;21312;-72
2021/08/13 06:21:16;;;;;;;6.83;3.98;;;;;;;19.47;65.08;100198.80;1631042;86;21103;-71
2021/08/13 06:23:44;;;;;;;8.10;4.00;;;;;;;19.50;64.63;100202.27;1629844;86;21190;-71
2021/08/13 06:26:11;;;;;;;14.38;4.30;;;;;;;19.55;64.95;100208.17;1630782;88;21063;-71
2021/08/13 06:28:38;;;;;;;5.28;4.00;;;;;;;19.61;64.51;100208.10;1630540;86;22100;-72
2021/08/13 06:31:08;;;;;;;6.05;3.90;;;;;;;19.66;64.09;100196.63;1642104;84;21055;-72
2021/08/13 06:33:36;;;;;;;10.58;3.58;;;;;;;19.70;63.76;100198.91;1673251;85;21069;-70
2021/08/13 06:36:04;;;;;;;14.03;4.72;;;;;;;19.75;63.55;100199.80;1673167;85;21110;-71
2021/08/13 06:38:33;;;;;;;4.60;3.33;;;;;;;19.81;63.39;100198.33;1673131;85;21008;-71
2021/08/13 06:41:05;;;;;;;6.60;3.98;;;;;;;19.88;63.19;100201.28;1672413;84;21132;-71
2021/08/13 06:43:37;;;;;;;7.72;3.90;;;;;;;19.92;62.67;100204.97;1679696;85;21043;-72
2021/08/13 06:46:09;;;;;;;5.55;3.62;;;;;;;19.99;63.57;100211.88;1684533;83;21044;-73
2021/08/13 06:48:37;;;;;;;7.28;3.58;;;;;;;20.06;63.43;100210.05;1698452;83;21089;-71
2021/08/13 06:51:07;;;;;;;8.15;3.83;;;;;;;20.15;63.45;100207.03;1674625;83;21090;-72
2021/08/13 06:53:36;;;;;;;5.62;3.37;;;;;;;20.25;63.31;100211.22;1666270;84;21074;-72
2021/08/13 06:56:05;;;;;;;12.53;3.83;;;;;;;20.33;62.54;100210.78;1682368;85;21015;-70
2021/08/13 06:58:41;;;;;;;6.65;3.67;;;;;;;20.43;61.83;100215.77;1687959;83;20999;-71
2021/08/13 07:01:13;;;;;;;10.63;3.77;;;;;;;20.53;61.29;100221.92;1667440;85;21024;-72
2021/08/13 07:03:44;;;;;;;5.90;3.60;;;;;;;20.50;60.13;100212.30;1673064;85;21052;-70
2021/08/13 07:06:11;;;;;;;5.35;3.00;;;;;;;20.50;60.09;100218.48;1649888;85;21591;-72
2021/08/13 07:08:37;;;;;;;5.37;3.00;;;;;;;20.45;60.22;100220.18;1683110;85;21142;-71
2021/08/13 07:11:07;;;;;;;4.30;3.20;;;;;;;20.49;60.65;100216.87;1654451;85;21044;-73
2021/08/13 07:13:34;;;;;;;8.13;3.20;;;;;;;20.60;60.68;100215.65;1649948;85;21184;-71
2021/08/13 07:16:01;;;;;;;6.55;3.02;;;;;;;20.73;61.35;100214.86;1675321;85;21028;-71
2021/08/13 07:18:29;;;;;;;8.90;2.98;;;;;;;20.83;61.06;100207.86;1675445;85;21563;-71
2021/08/13 07:20:58;;;;;;;7.12;3.67;;;;;;;20.97;60.48;100210.91;1675446;84;21063;-72
2021/08/13 07:23:28;;;;;;;4.78;3.33;;;;;;;21.07;60.08;100216.47;1676104;84;21033;-71
2021/08/13 07:25:54;;;;;;;4.03;2.80;;;;;;;21.12;59.37;100217.55;1675467;85;21275;-71
2021/08/13 07:28:21;;;;;;;7.47;3.70;;;;;;;21.16;59.83;100222.63;1649235;85;21036;-72
2021/08/13 07:30:47;;;;;;;5.80;2.83;;;;;;;21.26;60.21;100216.97;1675688;83;21520;-73
2021/08/13 07:33:15;;;;;;;5.33;3.15;;;;;;;21.38;58.12;100215.95;1675232;85;21021;-73
2021/08/13 07:35:41;;;;;;;5.25;2.40;;;;;;;21.44;58.02;100222.63;1682410;84;21062;-68
2021/08/13 07:38:09;;;;;;;2.77;2.42;;;;;;;21.46;57.10;100226.66;1667957;86;21116;-70
2021/08/13 07:40:40;;;;;;;6.00;2.90;;;;;;;21.40;56.40;100223.39;1667918;86;21027;-71
2021/08/13 07:43:11;;;;;;;7.08;3.85;;;;;;;21.37;56.29;100221.34;1678337;84;21066;-70
2021/08/13 07:45:40;;;;;;;9.63;3.45;;;;;;;21.39;56.04;100227.97;1656218;84;22520;-69
2021/08/13 07:48:08;;;;;;;6.50;3.42;;;;;;;21.46;57.04;100223.06;1677175;84;21106;-70
2021/08/13 07:50:40;;;;;;;5.05;3.22;;;;;;;21.52;56.48;100224.34;1657115;84;21072;-71
2021/08/13 07:53:10;;;;;;;5.12;2.70;;;;;;;21.60;57.11;100221.03;1676167;84;21035;-70
2021/08/13 07:55:42;;;;;;;10.13;3.08;;;;;;;21.74;57.05;100218.45;1655765;85;21048;-70
2021/08/13 07:58:10;;;;;;;5.87;2.70;;;;;;;21.84;55.42;100204.96;1677349;84;21087;-69
2021/08/13 08:00:40;;;;;;;4.12;2.67;;;;;;;21.77;54.40;100214.88;1656432;85;21040;-71
2021/08/13 08:03:07;;;;;;;5.28;2.62;;;;;;;21.61;54.35;100209.47;1676830;84;21083;-71
2021/08/13 08:05:39;;;;;;;5.97;2.70;;;;;;;21.62;55.23;100204.06;1657578;84;21313;-71
2021/08/13 08:08:07;;;;;;;5.85;2.20;;;;;;;21.77;55.63;100206.46;1645719;85;21019;-70
2021/08/13 08:10:37;;;;;;;4.55;3.12;;;;;;;21.93;55.29;100197.08;1663172;85;21093;-70
2021/08/13 08:13:04;;;;;;;4.53;2.77;;;;;;;22.06;54.61;100199.63;1637670;86;21577;-70
2021/08/13 08:15:34;;;;;;;5.92;2.98;;;;;;;22.10;53.74;100197.08;1664863;85;21031;-71
2021/08/13 08:18:02;;;;;;;5.85;2.75;;;;;;;22.12;51.85;100193.88;1663582;84;21076;-71
2021/08/13 08:20:30;;;;;;;5.10;2.98;;;;;;;22.11;53.27;100200.08;1656648;85;21110;-70
2021/08/13 08:22:56;;;;;;;4.60;2.52;;;;;;;22.17;52.78;100204.77;1651935;85;21052;-71
2021/08/13 08:25:22;;;;;;;5.42;2.60;;;;;;;22.22;53.35;100199.39;1652262;86;21047;-70
2021/08/13 08:27:50;;;;;;;5.97;2.65;;;;;;;22.30;52.90;100205.30;1661614;84;21115;-71
2021/08/13 08:30:21;;;;;;;4.22;2.77;;;;;;;22.42;52.97;100193.58;1665231;84;21066;-70
2021/08/13 08:32:51;;;;;;;5.37;2.90;;;;;;;22.56;54.08;100196.55;1651907;84;21102;-70
2021/08/13 08:35:24;;;;;;;5.25;3.00;;;;;;;22.64;52.63;100203.66;1662525;84;21075;-71
2021/08/13 08:37:56;;;;;;;6.35;2.80;;;;;;;22.64;51.34;100199.45;1632375;85;21580;-70
2021/08/13 08:40:36;;;;;;;5.08;2.62;;;;;;;22.68;52.99;100198.88;1628737;84;21801;-70
2021/08/13 08:43:07;;;;;;;9.83;3.20;;;;;;;22.72;51.77;100203.94;1659510;84;21063;-72
2021/08/13 08:45:37;;;;;;;10.15;2.42;;;;;;;22.78;51.92;100206.59;1682520;84;21039;-69
2021/08/13 08:48:09;;;;;;;6.15;2.87;;;;;;;22.86;51.44;100202.64;1672308;84;21119;-70
2021/08/13 08:50:46;;;;;;;3.83;2.47;;;;;;;22.97;51.77;100206.14;1695596;83;21061;-70
2021/08/13 08:53:23;;;;;;;5.30;2.67;;;;;;;23.03;50.07;100203.17;1697443;84;22213;-71
2021/08/13 08:55:52;;;;;;;8.53;2.80;;;;;;;23.08;51.23;100209.83;1697883;84;21464;-71
2021/08/13 08:58:26;;;;;;;7.78;2.87;;;;;;;23.21;52.22;100206.72;1698001;84;26496;-70
2021/08/13 09:00:54;;;;;;;67.92;6.50;;;;;;;23.26;50.62;100199.33;1687190;83;21606;-71
2021/08/13 09:03:23;;;;;;;3.52;2.55;;;;;;;23.29;50.46;100204.16;1682598;83;21051;-69
2021/08/13 09:05:50;;;;;;;5.58;2.67;;;;;;;23.33;50.72;100202.78;1677480;83;21879;-70
2021/08/13 09:08:17;;;;;;;4.00;2.30;;;;;;;23.41;51.92;100204.47;1691099;83;22074;-70
2021/08/13 09:10:47;;;;;;;4.55;2.72;;;;;;;23.54;50.81;100210.55;1687314;84;21541;-69
2021/08/13 09:13:13;;;;;;;4.33;2.77;;;;;;;23.63;50.27;100208.02;1722388;83;21567;-71
2021/08/13 09:15:52;;;;;;;3.65;2.55;;;;;;;23.64;50.47;100204.80;1701322;84;21035;-70
2021/08/13 09:18:25;;;;;;;4.50;2.62;;;;;;;23.71;48.45;100202.01;1671166;84;21126;-72
2021/08/13 09:20:57;;;;;;;5.08;2.60;;;;;;;23.69;48.97;100198.81;1687064;83;21020;-70
2021/08/13 09:23:44;;;;;;;4.05;2.35;;;;;;;23.78;49.57;100195.61;1665523;84;21030;-72
2021/08/13 09:26:22;;;;;;;5.67;2.40;;;;;;;23.89;48.68;100187.81;1675298;85;21004;-71
2021/08/13 09:29:06;;;;;;;2.92;2.05;;;;;;;23.93;48.67;100195.69;1674737;85;21034;-70
2021/08/13 09:32:05;;;;;;;5.00;2.40;;;;;;;23.95;48.55;100191.88;1693645;83;21029;-71
2021/08/13 09:34:46;;;;;;;6.35;2.42;;;;;;;24.04;48.74;100189.48;1693006;84;21069;-70
2021/08/13 09:37:18;;;;;;;3.20;2.25;;;;;;;24.22;48.46;100194.39;1628724;85;21513;-71
2021/08/13 09:39:48;;;;;;;6.65;2.70;;;;;;;24.33;47.65;100196.44;1688195;84;21043;-71
2021/08/13 09:42:16;;;;;;;4.53;2.45;;;;;;;24.29;46.80;100202.84;1691077;82;21028;-72
2021/08/13 09:44:43;;;;;;;3.58;2.27;;;;;;;24.21;45.64;100199.02;1717589;82;21081;-71
2021/08/13 09:47:13;;;;;;;4.28;2.62;;;;;;;24.13;47.19;100198.14;1716801;82;21010;-72
2021/08/13 09:49:47;;;;;;;6.58;2.40;;;;;;;24.13;48.83;100193.92;1690821;82;21547;-70
2021/08/13 09:52:20;;;;;;;6.20;2.22;;;;;;;24.24;48.96;100193.37;1718291;82;21054;-72
2021/08/13 09:54:54;;;;;;;6.62;2.37;;;;;;;24.19;47.58;100200.83;1691623;82;21021;-71
2021/08/13 09:57:20;;;;;;;3.75;2.72;;;;;;;24.15;48.22;100195.75;1718692;82;21768;-70
2021/08/13 10:00:06;;;;;;;4.80;2.40;;;;;;;24.14;47.67;100202.59;1693919;82;21081;-71
2021/08/13 10:02:46;;;;;;;;;;;;;;;24.22;47.52;100205.66;1722991;82;21069;-71
2021/08/13 10:05:24;;;;;;;3.62;2.40;;;;;;;24.22;47.01;100194.39;1716659;82;20235;-71
2021/08/13 10:07:56;;;;;;;3.33;2.05;;;;;;;24.32;46.82;100197.03;1716765;82;21006;-72
2021/08/13 10:10:31;;;;;;;4.50;2.90;;;;;;;24.47;46.25;100199.27;1722126;82;21077;-71
2021/08/13 10:13:01;;;;;;;3.08;2.33;;;;;;;24.60;46.70;100197.48;1718987;82;21082;-71
2021/08/13 10:15:43;;;;;;;3.00;2.70;;;;;;;24.71;46.67;100196.06;1730435;82;21308;-71
2021/08/13 10:18:17;;;;;;;7.37;2.42;;;;;;;24.85;46.83;100198.89;1737796;82;21066;-71
2021/08/13 10:20:50;;;;;;;4.97;2.50;;;;;;;24.95;45.70;100204.35;1723470;82;21037;-71
2021/08/13 10:23:23;;;;;;;3.95;2.37;;;;;;;24.92;44.60;100200.94;1718350;82;21610;-70
2021/08/13 10:25:54;;;;;;;5.22;2.42;;;;;;;24.87;45.06;100197.08;1715789;82;21781;-70
2021/08/13 10:28:24;;;;;;;5.53;2.50;;;;;;;24.85;45.34;100198.08;1722668;82;21795;-70
2021/08/13 10:30:54;;;;;;;5.58;2.90;;;;;;;24.98;44.74;100204.95;1716232;82;21490;-71
2021/08/13 10:33:22;;;;;;;3.37;2.25;;;;;;;25.09;45.46;100205.55;1709110;81;21083;-71
2021/08/13 10:35:55;;;;;;;4.20;2.42;;;;;;;25.08;43.81;100192.68;1700999;83;21068;-70
2021/08/13 10:38:22;;;;;;;8.53;3.80;;;;;;;25.07;45.21;100195.28;1657884;84;21012;-69
2021/08/13 10:40:51;;;;;;;4.05;2.65;;;;;;;25.14;43.68;100195.28;1673996;84;21502;-69
2021/08/13 10:43:36;;;;;;;5.37;2.77;;;;;;;25.08;43.28;100195.50;1656383;85;21032;-70
2021/08/13 10:46:06;;;;;;;4.83;2.30;;;;;;;25.01;44.12;100197.09;1682565;84;21050;-71
2021/08/13 10:48:39;;;;;;;3.85;2.37;;;;;;;25.07;45.02;100187.64;1637079;86;21138;-70
2021/08/13 10:51:06;;;;;;;3.57;2.63;;;;;;;25.25;44.67;100183.97;1669990;84;21114;-70
2021/08/13 10:53:35;;;;;;;5.12;2.87;;;;;;;25.42;44.52;100185.14;1667302;85;21047;-70
2021/08/13 10:56:11;;;;;;;3.70;2.35;;;;;;;25.45;42.37;100194.22;1665769;85;21540;-70
2021/08/13 10:58:46;;;;;;;9.23;2.33;;;;;;;25.33;43.14;100189.00;1637014;85;21150;-70
2021/08/13 11:01:21;;;;;;;10.55;2.70;;;;;;;25.40;43.31;100183.36;1669340;84;21535;-71
2021/08/13 11:03:58;;;;;;;3.80;2.52;;;;;;;25.47;42.69;100193.19;1636937;86;21130;-70
2021/08/13 11:06:41;;;;;;;6.90;3.08;;;;;;;25.25;41.18;100190.42;1667741;86;21075;-70
2021/08/13 11:09:15;;;;;;;5.62;2.00;;;;;;;25.04;42.55;100189.23;1667725;86;21027;-71
2021/08/13 11:11:55;;;;;;;6.15;2.42;;;;;;;25.07;43.18;100189.64;1667581;84;21095;-70
2021/08/13 11:14:35;;;;;;;3.33;2.10;;;;;;;25.17;43.57;100191.64;1637326;86;21035;-71
2021/08/13 11:17:03;;;;;;;5.92;2.50;;;;;;;25.31;44.61;100179.55;1673881;84;21083;-71
2021/08/13 11:19:57;;;;;;;3.75;2.62;;;;;;;25.58;43.42;100181.06;1651986;86;21038;-70
2021/08/13 11:22:34;;;;;;;6.08;2.35;;;;;;;25.71;43.25;100179.44;1655671;85;21572;-70
2021/08/13 11:25:09;;;;;;;4.80;2.67;;;;;;;25.79;42.53;100180.82;1682110;84;21031;-70
2021/08/13 11:27:38;;;;;;;9.00;2.77;;;;;;;25.86;41.90;100186.44;1669875;84;21496;-71
2021/08/13 11:30:39;;;;;;;4.03;2.05;;;;;;;25.88;42.00;100182.58;1667051;86;21099;-70
2021/08/13 11:33:32;;;;;;;4.30;2.27;;;;;;;26.00;42.01;100183.53;1679475;83;21789;-71
2021/08/13 11:36:07;;;;;;;7.53;2.60;;;;;;;26.14;41.34;100181.85;1647020;86;21316;-71
2021/08/13 11:38:52;;;;;;;3.83;2.77;;;;;;;26.06;40.27;100176.86;1657065;85;21080;-71
2021/08/13 11:41:24;;;;;;;4.33;2.33;;;;;;;25.96;40.74;100182.77;1624071;86;21754;-71
2021/08/13 11:43:55;;;;;;;7.20;3.17;;;;;;;25.88;41.53;100183.99;1655761;85;21709;-69
2021/08/13 11:46:35;;;;;;;4.00;3.10;;;;;;;25.90;40.97;100175.92;1658525;86;21054;-69
2021/08/13 11:49:05;;;;;;;3.12;2.47;;;;;;;25.98;41.74;100167.61;1643406;86;21536;-70